createdAt,value
2023-05-05T00:02:26.900Z,99845.42
2023-05-05T00:04:54.647Z,99842.97
2023-05-05T00:07:22.258Z,99841.40
2023-05-05T00:09:49.854Z,99843.85
2023-05-05T00:12:17.500Z,99843.84
2023-05-05T00:14:45.159Z,99845.94
2023-05-05T00:17:12.795Z,99844.36
2023-05-05T00:19:40.770Z,99850.83
2023-05-05T00:22:08.389Z,99847.33
2023-05-05T00:24:36.129Z,99844.18
2023-05-05T00:27:04.176Z,99843.31
2023-05-05T00:29:31.868Z,99836.50
2023-05-05T00:31:59.599Z,99835.64
2023-05-05T00:34:27.236Z,99834.04
2023-05-05T00:36:54.878Z,99828.83
2023-05-05T00:39:22.527Z,99827.42
2023-05-05T00:41:50.772Z,99822.55
2023-05-05T00:44:18.474Z,99823.07
2023-05-05T00:46:46.220Z,99821.14
2023-05-05T00:49:13.975Z,99821.32
2023-05-05T00:51:41.622Z,99821.15
2023-05-05T00:54:09.238Z,99818.17
2023-05-05T00:56:36.873Z,99821.15
2023-05-05T00:59:04.511Z,99820.46
2023-05-05T01:01:32.822Z,99819.40
2023-05-05T01:04:00.494Z,99821.86
2023-05-05T01:06:28.133Z,99819.75
2023-05-05T01:08:56.491Z,99815.04
2023-05-05T01:11:24.127Z,99815.37
2023-05-05T01:13:51.734Z,99814.33
2023-05-05T01:16:19.356Z,99810.48
2023-05-05T01:18:47.043Z,99810.30
2023-05-05T01:21:14.768Z,99811.34
2023-05-05T01:23:42.522Z,99812.91
2023-05-05T01:26:10.208Z,99809.25
2023-05-05T01:28:37.842Z,99812.05
2023-05-05T01:31:05.965Z,99805.77
2023-05-05T01:33:33.579Z,99804.03
2023-05-05T01:36:01.204Z,99804.38
2023-05-05T01:38:29.434Z,99804.22
2023-05-05T01:40:57.400Z,99808.04
2023-05-05T01:43:25.055Z,99805.94
2023-05-05T01:45:52.763Z,99808.21
2023-05-05T01:48:20.358Z,99809.95
2023-05-05T01:50:48.044Z,99811.17
2023-05-05T01:53:17.667Z,99810.65
2023-05-05T01:55:45.301Z,99814.48
2023-05-05T01:58:13.597Z,99813.77
2023-05-05T02:00:41.226Z,99812.52
2023-05-05T02:03:08.961Z,99809.89
2023-05-05T02:05:36.856Z,99807.60
2023-05-05T02:08:04.517Z,99805.66
2023-05-05T02:10:32.158Z,99807.04
2023-05-05T02:12:59.856Z,99801.74
2023-05-05T02:15:27.478Z,99801.55
2023-05-05T02:17:55.144Z,99807.79
2023-05-05T02:20:22.804Z,99807.23
2023-05-05T02:22:50.414Z,99804.61
2023-05-05T02:25:18.126Z,99802.33
2023-05-05T02:27:45.822Z,99797.95
2023-05-05T02:30:13.473Z,99794.14
2023-05-05T02:32:41.202Z,99793.41
2023-05-05T02:35:08.997Z,99791.29
2023-05-05T02:37:36.633Z,99795.10
2023-05-05T02:40:04.960Z,99797.34
2023-05-05T02:42:32.775Z,99799.44
2023-05-05T02:45:00.485Z,99806.71
2023-05-05T02:47:28.149Z,99806.89
2023-05-05T02:49:55.901Z,99810.18
2023-05-05T02:52:23.548Z,99814.52
2023-05-05T02:54:51.282Z,99815.86
2023-05-05T02:57:18.891Z,99824.37
2023-05-05T02:59:48.845Z,99827.10
2023-05-05T03:02:16.448Z,99820.45
2023-05-05T03:04:44.064Z,99822.36
2023-05-05T03:07:12.030Z,99824.77
2023-05-05T03:09:39.648Z,99819.16
2023-05-05T03:12:07.325Z,99819.11
2023-05-05T03:14:35.116Z,99821.39
2023-05-05T03:17:02.759Z,99818.92
2023-05-05T03:19:30.400Z,99819.54
2023-05-05T03:21:58.308Z,99814.61
2023-05-05T03:24:25.929Z,99813.34
2023-05-05T03:26:53.913Z,99812.61
2023-05-05T03:29:21.565Z,99812.92
2023-05-05T03:31:49.245Z,99809.28
2023-05-05T03:34:16.992Z,99811.02
2023-05-05T03:36:44.624Z,99810.16
2023-05-05T03:39:12.373Z,99806.89
2023-05-05T03:41:39.987Z,99810.70
2023-05-05T03:44:07.617Z,99810.19
2023-05-05T03:46:36.139Z,99810.02
2023-05-05T03:49:03.755Z,99812.48
2023-05-05T03:51:31.791Z,99818.78
2023-05-05T03:53:59.445Z,99819.66
2023-05-05T03:56:27.060Z,99816.04
2023-05-05T03:58:54.697Z,99817.62
2023-05-05T04:01:23.446Z,99820.61
2023-05-05T04:03:51.202Z,99820.27
2023-05-05T04:06:18.992Z,99819.92
2023-05-05T04:08:46.767Z,99827.21
2023-05-05T04:11:14.409Z,99829.46
2023-05-05T04:13:42.058Z,99833.28
2023-05-05T04:16:09.698Z,99834.15
2023-05-05T04:18:37.382Z,99832.93
2023-05-05T04:21:04.995Z,99830.92
2023-05-05T04:23:32.618Z,99824.00
2023-05-05T04:26:00.236Z,99824.71
2023-05-05T04:28:27.883Z,99829.11
2023-05-05T04:30:55.635Z,99830.73
2023-05-05T04:33:23.363Z,99829.21
2023-05-05T04:35:51.012Z,99829.61
2023-05-05T04:38:20.792Z,99828.41
2023-05-05T04:40:48.477Z,99831.41
2023-05-05T04:43:16.121Z,99830.56
2023-05-05T04:45:43.749Z,99832.34
2023-05-05T04:48:11.341Z,99836.42
2023-05-05T04:50:38.939Z,99840.48
2023-05-05T04:53:06.559Z,99836.52
2023-05-05T04:55:34.169Z,99839.34
2023-05-05T04:58:01.884Z,99836.99
2023-05-05T05:00:29.517Z,99839.29
2023-05-05T05:02:57.258Z,99846.95
2023-05-05T05:05:24.951Z,99848.86
2023-05-05T05:07:52.622Z,99854.27
2023-05-05T05:10:20.240Z,99858.29
2023-05-05T05:12:47.974Z,99855.88
2023-05-05T05:15:15.981Z,99856.78
2023-05-05T05:17:43.636Z,99858.90
2023-05-05T05:20:11.456Z,99854.90
2023-05-05T05:22:39.371Z,99852.48
2023-05-05T05:25:07.017Z,99854.08
2023-05-05T05:27:34.627Z,99858.11
2023-05-05T05:30:03.363Z,99857.08
2023-05-05T05:32:31.297Z,99859.52
2023-05-05T05:34:58.914Z,99857.10
2023-05-05T05:37:26.524Z,99857.98
2023-05-05T05:39:54.171Z,99855.55
2023-05-05T05:42:21.828Z,99851.89
2023-05-05T05:44:49.470Z,99850.14
2023-05-05T05:47:17.160Z,99852.73
2023-05-05T05:49:44.804Z,99856.77
2023-05-05T05:52:12.521Z,99853.63
2023-05-05T05:54:40.148Z,99853.95
2023-05-05T05:57:07.941Z,99854.48
2023-05-05T05:59:35.683Z,99859.71
2023-05-05T06:02:04.702Z,99860.94
2023-05-05T06:04:32.415Z,99863.73
2023-05-05T06:07:00.039Z,99867.73
2023-05-05T06:09:27.686Z,99864.24
2023-05-05T06:11:55.463Z,99864.27
2023-05-05T06:14:23.139Z,99861.63
2023-05-05T06:16:52.430Z,99858.65
2023-05-05T06:19:20.102Z,99860.73
2023-05-05T06:21:47.781Z,99862.27
2023-05-05T06:24:15.420Z,99863.48
2023-05-05T06:29:31.433Z,99861.70
2023-05-05T06:32:01.215Z,99860.98
2023-05-05T06:34:28.895Z,99861.88
2023-05-05T06:36:56.504Z,99863.25
2023-05-05T06:39:24.143Z,99866.91
2023-05-05T06:41:52.082Z,99870.58
2023-05-05T06:44:19.770Z,99870.55
2023-05-05T06:46:47.526Z,99869.50
2023-05-05T06:49:15.233Z,99868.77
2023-05-05T06:51:43.092Z,99865.09
2023-05-05T06:54:10.854Z,99866.98
2023-05-05T06:56:38.517Z,99866.77
2023-05-05T06:59:06.436Z,99869.55
2023-05-05T07:01:34.061Z,99871.45
2023-05-05T07:04:01.934Z,99869.84
2023-05-05T07:06:29.636Z,99873.85
2023-05-05T07:08:58.049Z,99878.56
2023-05-05T07:11:25.827Z,99870.48
2023-05-05T07:13:53.459Z,99869.42
2023-05-05T07:16:21.189Z,99866.76
2023-05-05T07:18:48.992Z,99866.90
2023-05-05T07:21:16.860Z,99868.11
2023-05-05T07:23:46.665Z,99868.95
2023-05-05T07:26:14.443Z,99865.07
2023-05-05T07:28:43.250Z,99856.83
2023-05-05T07:31:10.944Z,99855.03
2023-05-05T07:33:38.728Z,99846.73
2023-05-05T07:36:06.739Z,99843.21
2023-05-05T07:38:34.694Z,99844.56
2023-05-05T07:41:02.311Z,99846.28
2023-05-05T07:43:29.964Z,99851.14
2023-05-05T07:45:57.607Z,99856.88
2023-05-05T07:48:25.581Z,99857.16
2023-05-05T07:50:53.229Z,99858.88
2023-05-05T07:53:21.132Z,99860.40
2023-05-05T07:55:48.796Z,99855.63
2023-05-05T07:58:16.432Z,99854.01
2023-05-05T08:00:44.051Z,99851.31
2023-05-05T08:03:12.262Z,99845.13
2023-05-05T08:05:40.846Z,99846.83
2023-05-05T08:08:08.541Z,99851.14
2023-05-05T08:10:36.109Z,99849.14
2023-05-05T08:13:03.845Z,99847.55
2023-05-05T08:15:31.475Z,99844.73
2023-05-05T08:17:59.198Z,99846.30
2023-05-05T08:20:26.884Z,99845.77
2023-05-05T08:22:54.682Z,99848.35
2023-05-05T08:25:22.395Z,99843.90
2023-05-05T08:27:51.404Z,99842.08
2023-05-05T08:30:21.582Z,99839.88
2023-05-05T08:32:49.502Z,99842.08
2023-05-05T08:35:17.245Z,99842.57
2023-05-05T08:37:45.018Z,99847.05
2023-05-05T08:40:14.384Z,99845.39
2023-05-05T08:42:42.353Z,99847.05
2023-05-05T08:45:10.650Z,99845.04
2023-05-05T08:47:39.120Z,99845.88
2023-05-05T08:50:06.972Z,99842.30
2023-05-05T08:52:34.719Z,99845.71
2023-05-05T08:55:02.715Z,99846.00
2023-05-05T08:57:30.336Z,99842.05
2023-05-05T08:59:58.988Z,99839.92
2023-05-05T09:02:28.616Z,99841.41
2023-05-05T09:04:56.334Z,99842.01
2023-05-05T09:07:23.932Z,99838.02
2023-05-05T09:09:51.590Z,99837.20
2023-05-05T09:12:19.197Z,99839.16
2023-05-05T09:17:36.223Z,99837.09
2023-05-05T09:20:07.498Z,99839.44
2023-05-05T09:22:35.193Z,99838.57
2023-05-05T09:25:03.095Z,99837.70
2023-05-05T09:27:30.765Z,99838.59
2023-05-05T09:29:58.478Z,99846.32
2023-05-05T09:32:27.631Z,99848.77
2023-05-05T09:34:56.258Z,99845.64
2023-05-05T09:37:23.878Z,99839.34
2023-05-05T09:39:51.509Z,99839.17
2023-05-05T09:42:19.713Z,99843.83
2023-05-05T09:44:47.326Z,99840.60
2023-05-05T09:47:28.479Z,99840.75
2023-05-05T09:49:56.564Z,99834.56
2023-05-05T09:52:24.181Z,99832.02
2023-05-05T09:54:51.809Z,99834.01
2023-05-05T09:57:19.461Z,99832.46
2023-05-05T09:59:47.072Z,99828.82
2023-05-05T10:02:14.696Z,99825.92
2023-05-05T10:04:42.391Z,99822.27
2023-05-05T10:07:10.075Z,99816.90
2023-05-05T10:09:37.685Z,99820.23
2023-05-05T10:12:05.737Z,99820.76
2023-05-05T10:14:33.349Z,99821.20
2023-05-05T10:17:01.013Z,99822.30
2023-05-05T10:19:28.711Z,99815.93
2023-05-05T10:21:56.356Z,99808.52
2023-05-05T10:24:23.987Z,99809.48
2023-05-05T10:26:53.997Z,99808.69
2023-05-05T10:29:21.654Z,99799.81
2023-05-05T10:31:49.370Z,99803.39
2023-05-05T10:34:17.111Z,99803.70
2023-05-05T10:36:45.195Z,99803.10
2023-05-05T10:39:12.897Z,99799.98
2023-05-05T10:41:41.015Z,99794.70
2023-05-05T10:44:10.908Z,99788.77
2023-05-05T10:46:38.663Z,99787.10
2023-05-05T10:49:06.394Z,99781.76
2023-05-05T10:51:39.882Z,99777.59
2023-05-05T10:54:10.487Z,99774.95
2023-05-05T10:56:38.270Z,99773.98
2023-05-05T10:59:06.097Z,99774.05
2023-05-05T11:01:33.982Z,99767.81
2023-05-05T11:04:01.899Z,99764.89
2023-05-05T11:06:30.883Z,99761.95
2023-05-05T11:08:58.519Z,99760.29
2023-05-05T11:11:26.150Z,99757.23
2023-05-05T11:13:53.779Z,99756.84
2023-05-05T11:16:21.442Z,99759.27
2023-05-05T11:18:49.084Z,99760.46
2023-05-05T11:21:16.831Z,99756.80
2023-05-05T11:23:44.508Z,99757.54
2023-05-05T11:26:13.172Z,99754.05
2023-05-05T11:28:41.246Z,99756.48
2023-05-05T11:31:08.859Z,99749.88
2023-05-05T11:33:37.184Z,99745.63
2023-05-05T11:36:06.755Z,99751.73
2023-05-05T11:38:34.980Z,99749.09
2023-05-05T11:41:02.594Z,99740.64
2023-05-05T11:43:30.211Z,99741.33
2023-05-05T11:45:57.896Z,99744.23
2023-05-05T11:48:27.326Z,99744.77
2023-05-05T11:50:55.075Z,99740.45
2023-05-05T11:53:22.691Z,99740.68
2023-05-05T11:55:50.335Z,99741.09
2023-05-05T11:58:17.958Z,99739.98
2023-05-05T12:00:45.773Z,99731.71
2023-05-05T12:03:13.536Z,99726.32
2023-05-05T12:05:41.342Z,99727.38
2023-05-05T12:08:09.878Z,99724.98
2023-05-05T12:10:37.949Z,99728.27
2023-05-05T12:13:05.703Z,99726.73
2023-05-05T12:15:33.396Z,99720.87
2023-05-05T12:18:03.096Z,99717.84
2023-05-05T12:20:32.489Z,99720.38
2023-05-05T12:23:00.133Z,99720.70
2023-05-05T12:25:27.781Z,99721.35
2023-05-05T12:27:55.662Z,99716.92
2023-05-05T12:30:23.457Z,99717.98
2023-05-05T12:32:51.174Z,99711.35
2023-05-05T12:35:19.996Z,99710.88
2023-05-05T12:37:47.615Z,99712.05
2023-05-05T12:40:15.248Z,99713.45
2023-05-05T12:42:43.651Z,99706.81
2023-05-05T12:45:12.813Z,99708.34
2023-05-05T12:47:44.182Z,99712.89
2023-05-05T12:50:11.883Z,99706.32
2023-05-05T12:52:39.540Z,99706.63
2023-05-05T12:55:07.410Z,99708.92
2023-05-05T12:57:35.407Z,99707.08
2023-05-05T13:00:03.780Z,99704.64
2023-05-05T13:02:31.449Z,99698.49
2023-05-05T13:04:59.218Z,99691.30
2023-05-05T13:07:26.834Z,99693.05
2023-05-05T13:09:54.469Z,99689.05
2023-05-05T13:12:23.302Z,99684.91
2023-05-05T13:14:52.642Z,99686.27
2023-05-05T13:17:20.302Z,99685.38
2023-05-05T13:19:47.953Z,99679.71
2023-05-05T13:22:15.620Z,99679.45
2023-05-05T13:24:51.913Z,99674.00
2023-05-05T13:27:20.732Z,99672.52
2023-05-05T13:29:48.689Z,99671.29
2023-05-05T13:32:16.361Z,99670.29
2023-05-05T13:34:44.373Z,99667.78
2023-05-05T13:37:12.009Z,99665.77
2023-05-05T13:39:39.667Z,99659.98
2023-05-05T13:42:07.339Z,99661.33
2023-05-05T13:44:35.879Z,99659.14
2023-05-05T13:47:03.856Z,99660.04
2023-05-05T13:49:31.568Z,99661.63
2023-05-05T13:51:59.529Z,99661.11
2023-05-05T13:54:27.182Z,99655.48
2023-05-05T13:56:54.820Z,99650.08
2023-05-05T13:59:22.471Z,99647.23
2023-05-05T14:01:50.142Z,99652.02
2023-05-05T14:04:17.822Z,99649.55
2023-05-05T14:06:45.612Z,99649.86
2023-05-05T14:09:13.705Z,99644.85
2023-05-05T14:11:41.404Z,99649.69
2023-05-05T14:14:09.030Z,99648.77
2023-05-05T14:16:36.715Z,99647.38
2023-05-05T14:19:04.378Z,99645.11
2023-05-05T14:21:32.812Z,99645.20
2023-05-05T14:24:00.523Z,99639.11
2023-05-05T14:26:28.188Z,99636.05
2023-05-05T14:28:55.942Z,99636.84
2023-05-05T14:31:23.663Z,99637.53
2023-05-05T14:33:51.302Z,99635.95
2023-05-05T14:36:18.987Z,99638.78
2023-05-05T14:38:46.709Z,99638.02
2023-05-05T14:41:14.374Z,99636.34
2023-05-05T14:43:42.099Z,99635.92
2023-05-05T14:46:09.743Z,99636.69
2023-05-05T14:48:37.797Z,99631.51
2023-05-05T14:51:05.461Z,99629.73
2023-05-05T14:53:33.157Z,99632.08
2023-05-05T14:56:00.811Z,99631.09
2023-05-05T14:58:28.469Z,99627.02
2023-05-05T15:00:56.148Z,99622.44
2023-05-05T15:03:23.864Z,99616.27
2023-05-05T15:05:51.533Z,99615.48
2023-05-05T15:08:19.407Z,99612.26
2023-05-05T15:10:47.117Z,99612.59
2023-05-05T15:13:15.030Z,99615.00
2023-05-05T15:15:43.084Z,99613.53
2023-05-05T15:18:10.739Z,99610.45
2023-05-05T15:20:38.366Z,99613.05
2023-05-05T15:23:06.016Z,99611.20
2023-05-05T15:25:33.665Z,99610.33
2023-05-05T15:28:01.317Z,99612.70
2023-05-05T15:30:28.958Z,99608.95
2023-05-05T15:32:56.693Z,99611.13
2023-05-05T15:35:25.711Z,99608.25
2023-05-05T15:37:53.329Z,99610.27
2023-05-05T15:40:20.954Z,99609.43
2023-05-05T15:42:49.965Z,99611.73
2023-05-05T15:45:17.630Z,99613.04
2023-05-05T15:47:46.233Z,99612.67
2023-05-05T15:50:14.303Z,99614.04
2023-05-05T15:52:42.007Z,99612.84
2023-05-05T15:55:09.751Z,99611.02
2023-05-05T15:57:39.913Z,99608.95
2023-05-05T16:00:08.098Z,99611.24
2023-05-05T16:02:38.385Z,99609.66
2023-05-05T16:05:06.414Z,99609.17
2023-05-05T16:07:34.253Z,99607.08
2023-05-05T16:10:01.973Z,99605.57
2023-05-05T16:12:29.712Z,99596.45
2023-05-05T16:14:57.472Z,99595.73
2023-05-05T16:17:25.186Z,99594.80
2023-05-05T16:19:52.901Z,99596.39
2023-05-05T16:22:21.239Z,99589.84
2023-05-05T16:24:48.928Z,99593.86
2023-05-05T16:27:16.616Z,99593.55
2023-05-05T16:29:44.305Z,99596.66
2023-05-05T16:32:11.941Z,99596.98
2023-05-05T16:34:39.649Z,99602.32
2023-05-05T16:37:07.267Z,99598.92
2023-05-05T16:39:40.261Z,99598.65
2023-05-05T16:42:08.156Z,99591.20
2023-05-05T16:44:36.057Z,99597.66
2023-05-05T16:47:03.754Z,99601.11
2023-05-05T16:49:31.382Z,99600.23
2023-05-05T16:51:59.154Z,99599.55
2023-05-05T16:54:26.775Z,99600.38
2023-05-05T16:56:55.068Z,99604.23
2023-05-05T16:59:22.712Z,99606.55
2023-05-05T17:01:50.387Z,99609.56
2023-05-05T17:04:18.061Z,99609.41
2023-05-05T17:06:46.170Z,99613.27
2023-05-05T17:09:13.787Z,99610.99
2023-05-05T17:11:42.023Z,99614.04
2023-05-05T17:14:09.938Z,99614.09
2023-05-05T17:16:37.885Z,99613.19
2023-05-05T17:19:05.630Z,99617.05
2023-05-05T17:21:33.240Z,99615.08
2023-05-05T17:24:01.594Z,99615.05
2023-05-05T17:26:29.201Z,99613.42
2023-05-05T17:28:56.826Z,99610.39
2023-05-05T17:31:24.503Z,99610.38
2023-05-05T17:33:52.164Z,99608.95
2023-05-05T17:36:19.783Z,99613.36
2023-05-05T17:38:47.386Z,99613.12
2023-05-05T17:41:15.056Z,99614.25
2023-05-05T17:43:42.741Z,99615.26
2023-05-05T17:46:10.475Z,99616.75
2023-05-05T17:48:38.256Z,99614.23
2023-05-05T17:51:05.924Z,99615.23
2023-05-05T17:53:33.688Z,99616.21
2023-05-05T17:56:01.345Z,99617.92
2023-05-05T17:58:28.947Z,99622.65
2023-05-05T18:00:56.696Z,99621.42
2023-05-05T18:03:24.667Z,99627.02
2023-05-05T18:05:53.052Z,99630.28
2023-05-05T18:08:20.749Z,99630.21
2023-05-05T18:10:48.416Z,99633.86
2023-05-05T18:13:16.058Z,99637.66
2023-05-05T18:15:43.744Z,99639.65
2023-05-05T18:18:11.452Z,99644.30
2023-05-05T18:20:39.152Z,99642.08
2023-05-05T18:23:06.811Z,99641.42
2023-05-05T18:25:34.436Z,99643.77
2023-05-05T18:28:02.049Z,99646.44
2023-05-05T18:30:29.672Z,99643.12
2023-05-05T18:32:57.386Z,99643.77
2023-05-05T18:35:24.988Z,99648.30
2023-05-05T18:37:54.569Z,99651.61
2023-05-05T18:40:22.221Z,99656.16
2023-05-05T18:42:49.924Z,99658.24
2023-05-05T18:45:17.624Z,99660.83
2023-05-05T18:47:45.383Z,99666.08
2023-05-05T18:50:13.044Z,99670.79
2023-05-05T18:52:40.694Z,99671.10
2023-05-05T18:55:08.509Z,99673.48
2023-05-05T18:57:36.357Z,99674.85
2023-05-05T19:00:03.988Z,99678.48
2023-05-05T19:02:31.895Z,99678.42
2023-05-05T19:04:59.650Z,99678.36
2023-05-05T19:07:35.447Z,99683.73
2023-05-05T19:10:03.668Z,99681.39
2023-05-05T19:12:31.329Z,99684.14
2023-05-05T19:14:59.094Z,99686.72
2023-05-05T19:17:26.741Z,99687.06
2023-05-05T19:19:54.413Z,99689.49
2023-05-05T19:22:24.213Z,99683.13
2023-05-05T19:24:51.851Z,99682.37
2023-05-05T19:27:19.470Z,99681.65
2023-05-05T19:29:52.238Z,99684.73
2023-05-05T19:32:20.664Z,99688.50
2023-05-05T19:34:48.796Z,99686.83
2023-05-05T19:37:16.470Z,99687.09
2023-05-05T19:39:45.858Z,99688.06
2023-05-05T19:42:13.573Z,99684.67
2023-05-05T19:44:41.215Z,99683.89
2023-05-05T19:47:09.066Z,99679.95
2023-05-05T19:49:38.584Z,99684.27
2023-05-05T19:52:06.295Z,99682.09
2023-05-05T19:54:33.933Z,99679.53
2023-05-05T19:57:03.690Z,99682.73
2023-05-05T19:59:31.441Z,99689.11
2023-05-05T20:01:59.489Z,99690.23
2023-05-05T20:04:27.324Z,99689.73
2023-05-05T20:06:55.011Z,99693.64
2023-05-05T20:09:22.651Z,99690.35
2023-05-05T20:11:50.221Z,99690.05
2023-05-05T20:14:17.886Z,99688.52
2023-05-05T20:16:45.508Z,99683.83
2023-05-05T20:19:13.250Z,99688.09
2023-05-05T20:21:41.323Z,99687.08
2023-05-05T20:24:09.063Z,99688.37
2023-05-05T20:26:36.812Z,99685.94
2023-05-05T20:29:04.449Z,99685.12
2023-05-05T20:31:32.098Z,99685.88
2023-05-05T20:33:59.822Z,99682.56
2023-05-05T20:36:27.785Z,99685.94
2023-05-05T20:38:55.480Z,99683.70
2023-05-05T20:41:23.094Z,99684.48
2023-05-05T20:43:50.905Z,99679.98
2023-05-05T20:46:18.586Z,99680.20
2023-05-05T20:48:46.510Z,99682.53
2023-05-05T20:51:14.148Z,99682.95
2023-05-05T20:53:41.828Z,99686.34
2023-05-05T20:56:09.497Z,99686.59
2023-05-05T20:58:37.106Z,99685.94
2023-05-05T21:01:04.781Z,99684.06
2023-05-05T21:03:32.503Z,99683.06
2023-05-05T21:06:00.298Z,99684.46
2023-05-05T21:08:28.005Z,99683.45
2023-05-05T21:10:55.644Z,99684.36
2023-05-05T21:13:23.351Z,99684.58
2023-05-05T21:15:51.011Z,99678.30
2023-05-05T21:18:18.628Z,99678.89
2023-05-05T21:20:46.260Z,99675.98
2023-05-05T21:23:13.910Z,99673.63
2023-05-05T21:25:41.561Z,99674.01
2023-05-05T21:28:09.171Z,99676.50
2023-05-05T21:30:38.170Z,99672.50
2023-05-05T21:33:05.928Z,99675.16
2023-05-05T21:35:34.080Z,99683.22
2023-05-05T21:38:02.308Z,99681.33
2023-05-05T21:40:29.967Z,99682.92
2023-05-05T21:42:57.612Z,99682.27
2023-05-05T21:45:25.252Z,99677.23
2023-05-05T21:47:52.996Z,99673.09
2023-05-05T21:50:20.739Z,99678.05
2023-05-05T21:52:48.354Z,99678.44
2023-05-05T21:55:15.978Z,99678.63
2023-05-05T21:57:43.582Z,99679.34
2023-05-05T22:00:16.769Z,99677.95
2023-05-05T22:02:44.712Z,99676.03
2023-05-05T22:05:12.470Z,99669.76
2023-05-05T22:07:40.898Z,99674.70
2023-05-05T22:10:08.758Z,99672.98
2023-05-05T22:12:36.533Z,99675.80
2023-05-05T22:15:04.186Z,99670.90
2023-05-05T22:17:31.868Z,99670.27
2023-05-05T22:19:59.537Z,99667.16
2023-05-05T22:22:27.162Z,99666.33
2023-05-05T22:24:54.762Z,99667.40
2023-05-05T22:27:22.459Z,99664.99
2023-05-05T22:29:50.062Z,99663.09
2023-05-05T22:32:17.668Z,99664.36
2023-05-05T22:34:45.277Z,99667.21
2023-05-05T22:37:12.993Z,99663.22
2023-05-05T22:39:40.609Z,99666.23
2023-05-05T22:42:08.351Z,99666.77
2023-05-05T22:44:36.002Z,99664.02
2023-05-05T22:47:03.734Z,99661.59
2023-05-05T22:49:31.817Z,99661.80
2023-05-05T22:51:59.635Z,99662.70
2023-05-05T22:54:27.268Z,99662.56
2023-05-05T22:56:55.161Z,99663.13
2023-05-05T22:59:22.815Z,99661.58
2023-05-05T23:01:50.449Z,99661.61
2023-05-05T23:04:18.118Z,99665.85
2023-05-05T23:06:46.317Z,99665.02
2023-05-05T23:09:13.984Z,99666.09
2023-05-05T23:11:41.602Z,99661.77
2023-05-05T23:14:09.250Z,99658.46
2023-05-05T23:16:36.888Z,99662.00
2023-05-05T23:19:04.558Z,99661.16
2023-05-05T23:21:34.052Z,99657.69
2023-05-05T23:24:06.729Z,99659.45
2023-05-05T23:26:34.792Z,99659.29
2023-05-05T23:29:02.424Z,99657.73
2023-05-05T23:31:30.039Z,99652.70
2023-05-05T23:33:57.651Z,99655.69
2023-05-05T23:36:25.274Z,99654.14
2023-05-05T23:38:52.899Z,99655.00
2023-05-05T23:41:20.561Z,99655.73
2023-05-05T23:43:48.157Z,99654.67
2023-05-05T23:46:15.859Z,99649.62
2023-05-05T23:48:43.505Z,99646.15
2023-05-05T23:51:11.240Z,99643.91
2023-05-05T23:53:38.869Z,99644.44
2023-05-05T23:56:06.500Z,99642.70
2023-05-05T23:58:34.146Z,99647.95
